sensor_id;sensor_type;location;lat;lon;timestamp;pressure;altitude;pressure_sealevel;temperature;humidity
39487;BME280;25173;50.430;18.926;2023-03-20T00:02:18;98161.09;;;11.38;45.81
39487;BME280;25173;50.430;18.926;2023-03-20T00:05:21;98167.59;;;11.42;45.70
39487;BME280;25173;50.430;18.926;2023-03-20T00:08:22;98173.59;;;11.44;45.53
39487;BME280;25173;50.430;18.926;2023-03-20T00:11:28;98162.16;;;11.47;45.70
39487;BME280;25173;50.430;18.926;2023-03-20T00:14:30;98161.56;;;11.50;45.63
39487;BME280;25173;50.430;18.926;2023-03-20T00:17:32;98164.56;;;11.53;45.49
39487;BME280;25173;50.430;18.926;2023-03-20T00:20:33;98167.53;;;11.57;45.50
39487;BME280;25173;50.430;18.926;2023-03-20T00:23:33;98171.34;;;11.61;45.34
39487;BME280;25173;50.430;18.926;2023-03-20T00:26:35;98164.81;;;11.62;45.42
39487;BME280;25173;50.430;18.926;2023-03-20T00:29:37;98166.16;;;11.59;45.47
39487;BME280;25173;50.430;18.926;2023-03-20T00:32:38;98162.66;;;11.54;45.47
39487;BME280;25173;50.430;18.926;2023-03-20T00:35:38;98168.09;;;11.54;45.52
39487;BME280;25173;50.430;18.926;2023-03-20T00:38:40;98167.84;;;11.50;45.62
39487;BME280;25173;50.430;18.926;2023-03-20T00:41:47;98163.78;;;11.48;45.78
39487;BME280;25173;50.430;18.926;2023-03-20T00:44:52;98164.56;;;11.53;45.76
39487;BME280;25173;50.430;18.926;2023-03-20T00:47:57;98161.03;;;11.53;45.71
39487;BME280;25173;50.430;18.926;2023-03-20T00:50:58;98153.38;;;11.55;45.64
39487;BME280;25173;50.430;18.926;2023-03-20T00:53:59;98160.47;;;11.56;45.48
39487;BME280;25173;50.430;18.926;2023-03-20T00:57:02;98153.38;;;11.55;45.78
39487;BME280;25173;50.430;18.926;2023-03-20T01:00:12;98157.16;;;11.59;45.61
39487;BME280;25173;50.430;18.926;2023-03-20T01:03:21;98158.53;;;11.56;45.64
39487;BME280;25173;50.430;18.926;2023-03-20T01:06:22;98149.84;;;11.54;45.55
39487;BME280;25173;50.430;18.926;2023-03-20T01:09:23;98148.44;;;11.57;45.74
39487;BME280;25173;50.430;18.926;2023-03-20T01:12:23;98142.16;;;11.61;45.65
39487;BME280;25173;50.430;18.926;2023-03-20T01:15:26;98151.44;;;11.60;45.82
39487;BME280;25173;50.430;18.926;2023-03-20T01:18:29;98145.47;;;11.53;45.59
39487;BME280;25173;50.430;18.926;2023-03-20T01:21:30;98146.28;;;11.49;45.79
39487;BME280;25173;50.430;18.926;2023-03-20T01:24:31;98149.03;;;11.49;45.77
39487;BME280;25173;50.430;18.926;2023-03-20T01:27:31;98147.94;;;11.50;45.75
39487;BME280;25173;50.430;18.926;2023-03-20T01:30:32;98149.28;;;11.52;45.95
39487;BME280;25173;50.430;18.926;2023-03-20T01:33:33;98141.91;;;11.58;45.68
39487;BME280;25173;50.430;18.926;2023-03-20T01:36:35;98141.88;;;11.63;45.64
39487;BME280;25173;50.430;18.926;2023-03-20T01:39:38;98148.94;;;11.64;45.67
39487;BME280;25173;50.430;18.926;2023-03-20T01:42:39;98149.50;;;11.66;45.74
39487;BME280;25173;50.430;18.926;2023-03-20T01:45:49;98147.84;;;11.70;45.80
39487;BME280;25173;50.430;18.926;2023-03-20T01:51:55;98154.94;;;11.76;45.68
39487;BME280;25173;50.430;18.926;2023-03-20T01:54:57;98150.78;;;11.84;45.56
39487;BME280;25173;50.430;18.926;2023-03-20T01:58:01;98147.75;;;11.90;45.65
39487;BME280;25173;50.430;18.926;2023-03-20T02:01:04;98146.59;;;11.96;45.56
39487;BME280;25173;50.430;18.926;2023-03-20T02:04:06;98150.97;;;11.97;45.61
39487;BME280;25173;50.430;18.926;2023-03-20T02:07:19;98154.19;;;12.04;45.58
39487;BME280;25173;50.430;18.926;2023-03-20T02:10:43;98150.38;;;12.05;45.58
39487;BME280;25173;50.430;18.926;2023-03-20T02:13:56;98155.28;;;12.03;45.53
39487;BME280;25173;50.430;18.926;2023-03-20T02:17:09;98163.75;;;12.02;45.60
39487;BME280;25173;50.430;18.926;2023-03-20T02:20:44;98161.63;;;11.99;45.65
39487;BME280;25173;50.430;18.926;2023-03-20T02:24:06;98168.16;;;11.98;45.92
39487;BME280;25173;50.430;18.926;2023-03-20T02:27:38;98158.88;;;11.99;45.93
39487;BME280;25173;50.430;18.926;2023-03-20T02:44:00;98153.66;;;12.08;45.73
39487;BME280;25173;50.430;18.926;2023-03-20T03:03:30;98151.13;;;12.45;45.41
39487;BME280;25173;50.430;18.926;2023-03-20T03:06:36;98146.50;;;12.45;45.40
39487;BME280;25173;50.430;18.926;2023-03-20T03:09:48;98142.94;;;12.45;45.62
39487;BME280;25173;50.430;18.926;2023-03-20T03:12:51;98151.94;;;12.45;45.50
39487;BME280;25173;50.430;18.926;2023-03-20T03:15:58;98160.47;;;12.44;45.55
39487;BME280;25173;50.430;18.926;2023-03-20T03:19:04;98152.56;;;12.37;45.58
39487;BME280;25173;50.430;18.926;2023-03-20T03:22:07;98155.34;;;12.32;45.58
39487;BME280;25173;50.430;18.926;2023-03-20T03:25:09;98147.44;;;12.31;45.68
39487;BME280;25173;50.430;18.926;2023-03-20T03:28:39;98145.78;;;12.35;45.58
39487;BME280;25173;50.430;18.926;2023-03-20T03:31:44;98154.81;;;12.30;45.56
39487;BME280;25173;50.430;18.926;2023-03-20T03:34:45;98154.53;;;12.32;45.70
39487;BME280;25173;50.430;18.926;2023-03-20T03:45:15;98142.28;;;12.29;45.98
39487;BME280;25173;50.430;18.926;2023-03-20T03:48:21;98142.84;;;12.26;45.82
39487;BME280;25173;50.430;18.926;2023-03-20T03:51:28;98142.56;;;12.28;45.93
39487;BME280;25173;50.430;18.926;2023-03-20T03:54:43;98146.34;;;12.32;46.02
39487;BME280;25173;50.430;18.926;2023-03-20T04:01:23;98141.06;;;12.40;45.98
39487;BME280;25173;50.430;18.926;2023-03-20T04:04:27;98143.81;;;12.40;46.09
39487;BME280;25173;50.430;18.926;2023-03-20T04:07:29;98137.53;;;12.40;46.35
39487;BME280;25173;50.430;18.926;2023-03-20T04:10:30;98146.81;;;12.39;46.33
39487;BME280;25173;50.430;18.926;2023-03-20T04:13:30;98145.19;;;12.38;46.34
39487;BME280;25173;50.430;18.926;2023-03-20T04:16:31;98145.78;;;12.35;46.37
39487;BME280;25173;50.430;18.926;2023-03-20T04:19:32;98146.00;;;12.38;46.23
39487;BME280;25173;50.430;18.926;2023-03-20T04:22:33;98143.03;;;12.35;46.19
39487;BME280;25173;50.430;18.926;2023-03-20T04:25:39;98146.34;;;12.32;46.35
39487;BME280;25173;50.430;18.926;2023-03-20T04:28:40;98154.03;;;12.30;46.35
39487;BME280;25173;50.430;18.926;2023-03-20T04:31:50;98150.22;;;12.26;46.32
39487;BME280;25173;50.430;18.926;2023-03-20T04:34:59;98149.69;;;12.24;46.27
39487;BME280;25173;50.430;18.926;2023-03-20T04:38:17;98151.41;;;12.15;46.24
39487;BME280;25173;50.430;18.926;2023-03-20T04:41:18;98151.97;;;12.12;46.29
39487;BME280;25173;50.430;18.926;2023-03-20T04:44:23;98150.38;;;12.05;46.47
39487;BME280;25173;50.430;18.926;2023-03-20T04:47:24;98165.97;;;12.00;46.54
39487;BME280;25173;50.430;18.926;2023-03-20T04:50:25;98156.72;;;11.96;46.61
39487;BME280;25173;50.430;18.926;2023-03-20T04:53:26;98156.75;;;11.91;46.65
39487;BME280;25173;50.430;18.926;2023-03-20T04:56:27;98157.56;;;11.91;46.78
39487;BME280;25173;50.430;18.926;2023-03-20T04:59:39;98161.66;;;11.89;46.78
39487;BME280;25173;50.430;18.926;2023-03-20T05:02:41;98172.31;;;11.90;46.98
39487;BME280;25173;50.430;18.926;2023-03-20T05:05:41;98168.81;;;11.85;47.08
39487;BME280;25173;50.430;18.926;2023-03-20T05:08:43;98167.41;;;11.87;47.00
39487;BME280;25173;50.430;18.926;2023-03-20T05:11:44;98171.22;;;11.86;46.99
39487;BME280;25173;50.430;18.926;2023-03-20T05:14:57;98173.94;;;11.91;46.99
39487;BME280;25173;50.430;18.926;2023-03-20T05:18:22;98170.41;;;11.91;47.08
39487;BME280;25173;50.430;18.926;2023-03-20T05:21:38;98172.03;;;11.92;47.09
39487;BME280;25173;50.430;18.926;2023-03-20T05:24:58;98175.84;;;11.91;47.17
39487;BME280;25173;50.430;18.926;2023-03-20T05:28:19;98183.44;;;11.99;47.01
39487;BME280;25173;50.430;18.926;2023-03-20T05:31:28;98178.50;;;12.06;47.15
39487;BME280;25173;50.430;18.926;2023-03-20T05:34:38;98184.13;;;12.20;47.13
39487;BME280;25173;50.430;18.926;2023-03-20T05:37:51;98182.97;;;12.26;47.03
39487;BME280;25173;50.430;18.926;2023-03-20T05:41:14;98184.56;;;12.32;47.07
39487;BME280;25173;50.430;18.926;2023-03-20T05:44:38;98190.25;;;12.40;47.18
39487;BME280;25173;50.430;18.926;2023-03-20T05:47:51;98188.75;;;12.53;47.18
39487;BME280;25173;50.430;18.926;2023-03-20T05:51:17;98182.66;;;12.66;47.34
39487;BME280;25173;50.430;18.926;2023-03-20T05:54:29;98178.81;;;12.67;47.19
39487;BME280;25173;50.430;18.926;2023-03-20T05:57:48;98187.88;;;12.63;47.27
39487;BME280;25173;50.430;18.926;2023-03-20T06:01:04;98181.31;;;12.64;47.35
39487;BME280;25173;50.430;18.926;2023-03-20T06:04:26;98191.03;;;12.75;47.32
39487;BME280;25173;50.430;18.926;2023-03-20T06:07:47;98185.75;;;12.83;47.35
39487;BME280;25173;50.430;18.926;2023-03-20T06:10:50;98198.25;;;12.95;47.33
39487;BME280;25173;50.430;18.926;2023-03-20T06:13:51;98197.03;;;13.06;47.25
39487;BME280;25173;50.430;18.926;2023-03-20T06:16:55;98198.00;;;13.20;47.12
39487;BME280;25173;50.430;18.926;2023-03-20T06:19:56;98196.44;;;13.38;47.02
39487;BME280;25173;50.430;18.926;2023-03-20T06:22:57;98198.75;;;13.49;46.88
39487;BME280;25173;50.430;18.926;2023-03-20T06:25:58;98205.16;;;13.64;46.95
39487;BME280;25173;50.430;18.926;2023-03-20T06:29:00;98212.22;;;13.70;46.99
39487;BME280;25173;50.430;18.926;2023-03-20T06:32:01;98212.59;;;13.82;47.12
39487;BME280;25173;50.430;18.926;2023-03-20T06:35:04;98202.81;;;13.94;47.05
39487;BME280;25173;50.430;18.926;2023-03-20T06:38:08;98211.13;;;14.08;47.10
39487;BME280;25173;50.430;18.926;2023-03-20T06:41:09;98216.00;;;14.11;47.58
39487;BME280;25173;50.430;18.926;2023-03-20T06:44:11;98224.31;;;14.06;47.83
39487;BME280;25173;50.430;18.926;2023-03-20T06:47:38;98223.06;;;13.98;48.20
39487;BME280;25173;50.430;18.926;2023-03-20T06:50:39;98228.38;;;13.90;48.48
39487;BME280;25173;50.430;18.926;2023-03-20T06:53:40;98234.50;;;13.82;48.66
39487;BME280;25173;50.430;18.926;2023-03-20T06:56:49;98227.75;;;13.74;48.81
39487;BME280;25173;50.430;18.926;2023-03-20T06:59:50;98235.88;;;13.79;48.87
39487;BME280;25173;50.430;18.926;2023-03-20T07:02:52;98237.81;;;13.79;48.70
39487;BME280;25173;50.430;18.926;2023-03-20T07:05:54;98235.66;;;13.76;48.72
39487;BME280;25173;50.430;18.926;2023-03-20T07:08:56;98237.31;;;13.77;48.78
39487;BME280;25173;50.430;18.926;2023-03-20T07:11:57;98244.44;;;13.73;48.80
39487;BME280;25173;50.430;18.926;2023-03-20T07:14:58;98252.72;;;13.68;48.96
39487;BME280;25173;50.430;18.926;2023-03-20T07:17:59;98247.31;;;13.63;49.03
39487;BME280;25173;50.430;18.926;2023-03-20T07:21:03;98255.00;;;13.60;49.26
39487;BME280;25173;50.430;18.926;2023-03-20T07:24:06;98249.69;;;13.45;49.50
39487;BME280;25173;50.430;18.926;2023-03-20T07:27:07;98253.59;;;13.39;49.92
39487;BME280;25173;50.430;18.926;2023-03-20T07:30:09;98251.16;;;13.38;50.17
39487;BME280;25173;50.430;18.926;2023-03-20T07:33:12;98251.81;;;13.53;50.21
39487;BME280;25173;50.430;18.926;2023-03-20T07:36:13;98254.53;;;13.77;50.24
39487;BME280;25173;50.430;18.926;2023-03-20T07:39:14;98257.31;;;13.96;50.18
39487;BME280;25173;50.430;18.926;2023-03-20T07:42:22;98262.91;;;14.28;50.16
39487;BME280;25173;50.430;18.926;2023-03-20T07:45:32;98259.16;;;14.43;50.33
39487;BME280;25173;50.430;18.926;2023-03-20T07:48:33;98258.84;;;14.63;50.39
39487;BME280;25173;50.430;18.926;2023-03-20T07:51:35;98258.38;;;14.75;50.52
39487;BME280;25173;50.430;18.926;2023-03-20T07:54:37;98260.78;;;14.95;50.61
39487;BME280;25173;50.430;18.926;2023-03-20T07:57:37;98256.69;;;15.11;50.61
39487;BME280;25173;50.430;18.926;2023-03-20T08:00:38;98258.13;;;15.23;50.48
39487;BME280;25173;50.430;18.926;2023-03-20T08:03:38;98267.44;;;15.08;50.84
39487;BME280;25173;50.430;18.926;2023-03-20T08:06:39;98267.16;;;14.91;51.17
39487;BME280;25173;50.430;18.926;2023-03-20T08:09:40;98264.22;;;14.68;51.56
39487;BME280;25173;50.430;18.926;2023-03-20T08:12:40;98274.13;;;14.51;52.21
39487;BME280;25173;50.430;18.926;2023-03-20T08:15:41;98262.72;;;14.44;52.40
39487;BME280;25173;50.430;18.926;2023-03-20T08:18:41;98264.81;;;14.28;53.17
39487;BME280;25173;50.430;18.926;2023-03-20T08:21:42;98258.91;;;14.21;53.92
39487;BME280;25173;50.430;18.926;2023-03-20T08:24:43;98264.75;;;14.14;54.80
39487;BME280;25173;50.430;18.926;2023-03-20T08:27:43;98268.25;;;13.96;55.34
39487;BME280;25173;50.430;18.926;2023-03-20T08:30:44;98279.22;;;13.72;56.23
39487;BME280;25173;50.430;18.926;2023-03-20T08:33:45;98267.06;;;13.59;56.64
39487;BME280;25173;50.430;18.926;2023-03-20T08:36:46;98273.50;;;13.45;57.47
39487;BME280;25173;50.430;18.926;2023-03-20T08:39:47;98263.44;;;13.40;57.74
39487;BME280;25173;50.430;18.926;2023-03-20T08:42:47;98272.47;;;13.41;58.19
39487;BME280;25173;50.430;18.926;2023-03-20T08:45:48;98278.44;;;13.43;58.55
39487;BME280;25173;50.430;18.926;2023-03-20T08:48:49;98275.63;;;13.53;58.49
39487;BME280;25173;50.430;18.926;2023-03-20T08:51:49;98288.31;;;13.68;59.14
39487;BME280;25173;50.430;18.926;2023-03-20T08:54:50;98278.19;;;13.68;58.96
39487;BME280;25173;50.430;18.926;2023-03-20T08:57:50;98276.78;;;13.71;59.16
39487;BME280;25173;50.430;18.926;2023-03-20T09:00:52;98289.97;;;13.64;59.63
39487;BME280;25173;50.430;18.926;2023-03-20T09:03:54;98282.94;;;13.57;60.01
39487;BME280;25173;50.430;18.926;2023-03-20T09:06:54;98287.25;;;13.64;59.90
39487;BME280;25173;50.430;18.926;2023-03-20T09:09:55;98286.16;;;13.65;60.29
39487;BME280;25173;50.430;18.926;2023-03-20T09:12:56;98280.91;;;13.68;60.35
39487;BME280;25173;50.430;18.926;2023-03-20T09:15:57;98283.94;;;13.67;60.64
39487;BME280;25173;50.430;18.926;2023-03-20T09:18:57;98284.69;;;13.72;60.80
39487;BME280;25173;50.430;18.926;2023-03-20T09:21:59;98277.84;;;13.93;60.45
39487;BME280;25173;50.430;18.926;2023-03-20T09:25:00;98277.16;;;14.07;60.45
39487;BME280;25173;50.430;18.926;2023-03-20T09:28:00;98278.88;;;14.21;60.13
39487;BME280;25173;50.430;18.926;2023-03-20T09:31:01;98277.03;;;14.35;59.93
39487;BME280;25173;50.430;18.926;2023-03-20T09:34:01;98278.94;;;14.59;59.54
39487;BME280;25173;50.430;18.926;2023-03-20T09:37:02;98274.38;;;14.68;59.58
39487;BME280;25173;50.430;18.926;2023-03-20T09:40:04;98279.19;;;14.76;59.19
39487;BME280;25173;50.430;18.926;2023-03-20T09:43:29;98272.41;;;14.73;59.32
39487;BME280;25173;50.430;18.926;2023-03-20T09:50:11;98274.22;;;14.78;59.68
39487;BME280;25173;50.430;18.926;2023-03-20T09:53:25;98273.66;;;14.81;59.67
39487;BME280;25173;50.430;18.926;2023-03-20T09:56:28;98277.22;;;14.63;59.77
39487;BME280;25173;50.430;18.926;2023-03-20T09:59:31;98277.00;;;14.59;59.75
39487;BME280;25173;50.430;18.926;2023-03-20T10:05:49;98274.28;;;14.92;59.64
39487;BME280;25173;50.430;18.926;2023-03-20T10:08:52;98279.31;;;15.03;59.68
39487;BME280;25173;50.430;18.926;2023-03-20T10:15:45;98268.75;;;14.78;61.16
39487;BME280;25173;50.430;18.926;2023-03-20T10:19:11;98270.81;;;14.86;60.90
39487;BME280;25173;50.430;18.926;2023-03-20T10:22:25;98272.91;;;15.08;60.46
39487;BME280;25173;50.430;18.926;2023-03-20T10:28:42;98273.47;;;15.24;61.07
39487;BME280;25173;50.430;18.926;2023-03-20T10:42:27;98266.75;;;15.89;59.22
39487;BME280;25173;50.430;18.926;2023-03-20T10:45:45;98265.00;;;16.07;59.20
39487;BME280;25173;50.430;18.926;2023-03-20T10:49:12;98265.09;;;15.88;59.39
39487;BME280;25173;50.430;18.926;2023-03-20T10:52:18;98261.44;;;15.79;58.89
39487;BME280;25173;50.430;18.926;2023-03-20T10:55:22;98265.22;;;15.70;60.90
39487;BME280;25173;50.430;18.926;2023-03-20T10:58:27;98255.06;;;15.70;58.74
39487;BME280;25173;50.430;18.926;2023-03-20T11:01:29;98262.56;;;15.78;58.98
39487;BME280;25173;50.430;18.926;2023-03-20T11:04:30;98261.75;;;15.91;59.00
39487;BME280;25173;50.430;18.926;2023-03-20T11:07:32;98257.06;;;16.06;58.79
39487;BME280;25173;50.430;18.926;2023-03-20T11:10:36;98253.44;;;16.33;58.53
39487;BME280;25173;50.430;18.926;2023-03-20T11:13:40;98256.44;;;16.58;58.08
39487;BME280;25173;50.430;18.926;2023-03-20T11:16:41;98257.09;;;16.78;57.52
39487;BME280;25173;50.430;18.926;2023-03-20T11:19:42;98251.97;;;16.62;57.35
39487;BME280;25173;50.430;18.926;2023-03-20T11:22:42;98257.25;;;16.45;57.65
39487;BME280;25173;50.430;18.926;2023-03-20T11:25:52;98252.84;;;16.36;57.78
39487;BME280;25173;50.430;18.926;2023-03-20T11:28:58;98241.41;;;16.42;57.95
39487;BME280;25173;50.430;18.926;2023-03-20T11:32:05;98238.63;;;16.56;57.63
39487;BME280;25173;50.430;18.926;2023-03-20T11:38:19;98248.06;;;16.27;58.05
39487;BME280;25173;50.430;18.926;2023-03-20T11:41:25;98240.97;;;16.13;58.08
39487;BME280;25173;50.430;18.926;2023-03-20T11:44:28;98247.41;;;15.95;58.20
39487;BME280;25173;50.430;18.926;2023-03-20T11:47:32;98237.13;;;15.86;58.63
39487;BME280;25173;50.430;18.926;2023-03-20T11:50:35;98229.94;;;15.77;58.77
39487;BME280;25173;50.430;18.926;2023-03-20T11:53:50;98237.97;;;15.73;59.20
39487;BME280;25173;50.430;18.926;2023-03-20T11:56:58;98241.00;;;15.58;59.37
39487;BME280;25173;50.430;18.926;2023-03-20T12:00:51;98238.94;;;15.50;60.49
39487;BME280;25173;50.430;18.926;2023-03-20T12:03:51;98224.72;;;15.48;59.71
39487;BME280;25173;50.430;18.926;2023-03-20T12:07:00;98232.94;;;15.48;60.02
39487;BME280;25173;50.430;18.926;2023-03-20T12:10:07;98236.81;;;15.47;59.93
39487;BME280;25173;50.430;18.926;2023-03-20T12:13:21;98218.91;;;15.49;60.35
39487;BME280;25173;50.430;18.926;2023-03-20T12:16:24;98211.50;;;15.64;59.75
39487;BME280;25173;50.430;18.926;2023-03-20T12:19:29;98210.28;;;15.83;59.29
39487;BME280;25173;50.430;18.926;2023-03-20T12:22:37;98216.28;;;15.99;59.19
39487;BME280;25173;50.430;18.926;2023-03-20T12:25:51;98218.06;;;16.17;58.67
39487;BME280;25173;50.430;18.926;2023-03-20T12:28:58;98212.84;;;16.29;58.01
39487;BME280;25173;50.430;18.926;2023-03-20T12:35:31;98207.69;;;16.14;58.08
39487;BME280;25173;50.430;18.926;2023-03-20T12:38:33;98211.38;;;15.96;57.99
39487;BME280;25173;50.430;18.926;2023-03-20T12:41:40;98224.41;;;15.90;57.99
39487;BME280;25173;50.430;18.926;2023-03-20T12:54:32;98209.38;;;15.74;58.18
39487;BME280;25173;50.430;18.926;2023-03-20T13:07:21;98212.72;;;15.44;58.48
39487;BME280;25173;50.430;18.926;2023-03-20T13:18:03;98210.19;;;15.34;59.32
39487;BME280;25173;50.430;18.926;2023-03-20T13:20:32;98206.50;;;15.25;58.83
39487;BME280;25173;50.430;18.926;2023-03-20T13:27:10;98202.66;;;15.26;59.22
39487;BME280;25173;50.430;18.926;2023-03-20T13:33:46;98189.34;;;15.33;59.12
39487;BME280;25173;50.430;18.926;2023-03-20T13:37:12;98189.84;;;15.48;59.21
39487;BME280;25173;50.430;18.926;2023-03-20T13:43:29;98186.19;;;15.80;57.88
39487;BME280;25173;50.430;18.926;2023-03-20T13:46:35;98192.97;;;15.97;57.51
39487;BME280;25173;50.430;18.926;2023-03-20T13:49:45;98185.94;;;16.04;57.34
39487;BME280;25173;50.430;18.926;2023-03-20T13:53:00;98183.31;;;15.99;57.43
39487;BME280;25173;50.430;18.926;2023-03-20T13:56:19;98189.63;;;16.00;57.36
39487;BME280;25173;50.430;18.926;2023-03-20T14:06:00;98190.38;;;15.78;57.19
39487;BME280;25173;50.430;18.926;2023-03-20T14:09:29;98182.53;;;15.71;57.59
39487;BME280;25173;50.430;18.926;2023-03-20T14:12:31;98184.78;;;15.69;57.58
39487;BME280;25173;50.430;18.926;2023-03-20T14:15:37;98190.66;;;15.76;57.51
39487;BME280;25173;50.430;18.926;2023-03-20T14:18:38;98184.53;;;15.79;57.41
39487;BME280;25173;50.430;18.926;2023-03-20T14:21:44;98180.50;;;15.77;57.34
39487;BME280;25173;50.430;18.926;2023-03-20T14:24:55;98176.31;;;15.79;57.45
39487;BME280;25173;50.430;18.926;2023-03-20T14:28:08;98181.72;;;15.84;57.38
39487;BME280;25173;50.430;18.926;2023-03-20T14:34:24;98180.56;;;15.99;57.18
39487;BME280;25173;50.430;18.926;2023-03-20T14:37:28;98176.34;;;16.15;57.11
39487;BME280;25173;50.430;18.926;2023-03-20T14:40:33;98179.34;;;16.27;57.05
39487;BME280;25173;50.430;18.926;2023-03-20T14:50:13;98168.91;;;16.74;56.34
39487;BME280;25173;50.430;18.926;2023-03-20T14:53:19;98173.63;;;16.82;56.01
39487;BME280;25173;50.430;18.926;2023-03-20T14:56:32;98163.78;;;16.90;55.86
39487;BME280;25173;50.430;18.926;2023-03-20T14:59:33;98166.53;;;16.81;55.99
39487;BME280;25173;50.430;18.926;2023-03-20T15:02:35;98154.00;;;16.75;55.98
39487;BME280;25173;50.430;18.926;2023-03-20T15:05:37;98160.81;;;16.78;56.05
39487;BME280;25173;50.430;18.926;2023-03-20T15:08:44;98156.50;;;16.85;55.92
39487;BME280;25173;50.430;18.926;2023-03-20T15:11:47;98154.06;;;16.84;55.89
39487;BME280;25173;50.430;18.926;2023-03-20T15:14:55;98154.06;;;16.84;55.96
39487;BME280;25173;50.430;18.926;2023-03-20T15:18:12;98157.81;;;16.88;56.01
39487;BME280;25173;50.430;18.926;2023-03-20T15:24:22;98156.28;;;17.04;55.68
39487;BME280;25173;50.430;18.926;2023-03-20T15:27:26;98159.88;;;17.13;55.51
39487;BME280;25173;50.430;18.926;2023-03-20T15:30:31;98154.88;;;17.15;55.63
39487;BME280;25173;50.430;18.926;2023-03-20T15:33:36;98139.69;;;17.18;55.44
39487;BME280;25173;50.430;18.926;2023-03-20T15:36:41;98138.56;;;17.19;55.25
39487;BME280;25173;50.430;18.926;2023-03-20T15:39:46;98146.00;;;17.18;55.38
39487;BME280;25173;50.430;18.926;2023-03-20T15:45:56;98148.75;;;17.18;55.51
39487;BME280;25173;50.430;18.926;2023-03-20T15:48:58;98142.59;;;17.21;55.34
39487;BME280;25173;50.430;18.926;2023-03-20T15:52:04;98149.25;;;17.29;55.45
39487;BME280;25173;50.430;18.926;2023-03-20T15:55:11;98152.66;;;17.34;55.42
39487;BME280;25173;50.430;18.926;2023-03-20T15:58:14;98157.75;;;17.41;55.26
39487;BME280;25173;50.430;18.926;2023-03-20T16:01:20;98158.41;;;17.46;55.32
39487;BME280;25173;50.430;18.926;2023-03-20T16:04:22;98155.50;;;17.52;55.09
39487;BME280;25173;50.430;18.926;2023-03-20T16:07:27;98162.47;;;17.58;55.09
39487;BME280;25173;50.430;18.926;2023-03-20T16:10:33;98162.38;;;17.63;55.02
39487;BME280;25173;50.430;18.926;2023-03-20T16:13:41;98152.50;;;17.62;54.96
39487;BME280;25173;50.430;18.926;2023-03-20T16:16:47;98158.25;;;17.52;54.88
39487;BME280;25173;50.430;18.926;2023-03-20T16:19:48;98156.44;;;17.38;54.83
39487;BME280;25173;50.430;18.926;2023-03-20T16:22:49;98162.97;;;17.20;54.99
39487;BME280;25173;50.430;18.926;2023-03-20T16:25:56;98162.91;;;17.03;55.45
39487;BME280;25173;50.430;18.926;2023-03-20T16:28:58;98164.44;;;16.87;55.35
39487;BME280;25173;50.430;18.926;2023-03-20T16:32:08;98161.88;;;16.68;55.63
39487;BME280;25173;50.430;18.926;2023-03-20T16:35:19;98166.44;;;16.50;55.89
39487;BME280;25173;50.430;18.926;2023-03-20T16:38:30;98169.56;;;16.35;56.08
39487;BME280;25173;50.430;18.926;2023-03-20T16:41:33;98168.59;;;16.17;56.35
39487;BME280;25173;50.430;18.926;2023-03-20T16:44:35;98171.38;;;16.04;56.35
39487;BME280;25173;50.430;18.926;2023-03-20T16:47:36;98174.88;;;15.82;56.56
39487;BME280;25173;50.430;18.926;2023-03-20T16:50:41;98177.78;;;15.63;57.00
39487;BME280;25173;50.430;18.926;2023-03-20T16:53:52;98176.31;;;15.52;57.16
39487;BME280;25173;50.430;18.926;2023-03-20T16:56:54;98171.94;;;15.37;57.30
39487;BME280;25173;50.430;18.926;2023-03-20T17:00:00;98174.69;;;15.24;57.59
39487;BME280;25173;50.430;18.926;2023-03-20T17:03:18;98178.72;;;15.12;58.02
39487;BME280;25173;50.430;18.926;2023-03-20T17:06:29;98175.97;;;14.99;58.06
39487;BME280;25173;50.430;18.926;2023-03-20T17:09:35;98173.91;;;14.91;57.92
39487;BME280;25173;50.430;18.926;2023-03-20T17:12:38;98181.59;;;14.75;58.16
39487;BME280;25173;50.430;18.926;2023-03-20T17:15:40;98178.53;;;14.63;58.23
39487;BME280;25173;50.430;18.926;2023-03-20T17:18:40;98179.63;;;14.62;58.19
39487;BME280;25173;50.430;18.926;2023-03-20T17:21:42;98180.75;;;14.61;58.23
39487;BME280;25173;50.430;18.926;2023-03-20T17:24:43;98189.66;;;14.53;58.19
39487;BME280;25173;50.430;18.926;2023-03-20T17:27:44;98192.06;;;14.41;58.12
39487;BME280;25173;50.430;18.926;2023-03-20T17:30:47;98195.94;;;14.34;58.84
39487;BME280;25173;50.430;18.926;2023-03-20T17:33:48;98191.06;;;14.31;58.94
39487;BME280;25173;50.430;18.926;2023-03-20T17:36:49;98190.84;;;14.28;58.83
39487;BME280;25173;50.430;18.926;2023-03-20T17:39:49;98187.28;;;14.27;58.97
39487;BME280;25173;50.430;18.926;2023-03-20T17:42:50;98193.34;;;14.24;59.18
39487;BME280;25173;50.430;18.926;2023-03-20T17:45:50;98202.47;;;14.20;60.01
39487;BME280;25173;50.430;18.926;2023-03-20T17:48:57;98198.91;;;14.19;60.68
39487;BME280;25173;50.430;18.926;2023-03-20T17:51:58;98205.22;;;14.20;61.00
39487;BME280;25173;50.430;18.926;2023-03-20T17:54:58;98208.78;;;14.20;61.80
39487;BME280;25173;50.430;18.926;2023-03-20T17:57:59;98204.53;;;14.09;63.16
39487;BME280;25173;50.430;18.926;2023-03-20T18:01:00;98198.16;;;13.95;63.77
39487;BME280;25173;50.430;18.926;2023-03-20T18:04:00;98207.13;;;13.82;64.35
39487;BME280;25173;50.430;18.926;2023-03-20T18:07:01;98191.94;;;13.71;64.53
39487;BME280;25173;50.430;18.926;2023-03-20T18:10:02;98199.16;;;13.62;65.11
39487;BME280;25173;50.430;18.926;2023-03-20T18:13:03;98194.44;;;13.43;65.30
39487;BME280;25173;50.430;18.926;2023-03-20T18:16:04;98195.69;;;13.32;65.54
39487;BME280;25173;50.430;18.926;2023-03-20T18:19:05;98204.34;;;13.15;66.22
39487;BME280;25173;50.430;18.926;2023-03-20T18:22:06;98187.78;;;13.02;66.26
39487;BME280;25173;50.430;18.926;2023-03-20T18:25:08;98197.63;;;13.03;66.03